Time;durP1;ratioP1;P1;durP2;ratioP2;P2;SDS_P1;SDS_P2;PMS_P1;PMS_P2;Temp;Humidity;BMP_temperature;BMP_pressure;BME280_temperature;BME280_humidity;BME280_pressure;Samples;Min_cycle;Max_cycle;Signal;HPM_P1;HPM_P2
2023/08/19 00:00:16;;;;;;;5.28;3.60;;;;;;;23.70;nan;62175.50;5032389;28;20217;-70
2023/08/19 00:02:43;;;;;;;6.65;3.53;;;;;;;24.08;nan;62147.75;5032486;28;20224;-70
2023/08/19 00:05:09;;;;;;;7.43;3.95;;;;;;;23.90;nan;62223.25;5032318;28;20179;-70
2023/08/19 00:07:35;;;;;;;5.43;3.45;;;;;;;23.76;nan;62171.31;5031639;28;20246;-70
2023/08/19 00:10:02;;;;;;;5.50;3.42;;;;;;;23.75;nan;62052.75;5032390;28;20481;-70
2023/08/19 00:12:28;;;;;;;6.30;3.70;;;;;;;23.81;nan;62106.00;5032049;28;20749;-71
2023/08/19 00:14:55;;;;;;;6.22;3.85;;;;;;;23.62;nan;62189.88;5032154;28;20198;-70
2023/08/19 00:17:21;;;;;;;4.93;3.45;;;;;;;23.56;nan;62015.47;5031966;28;20175;-71
2023/08/19 00:19:47;;;;;;;5.72;3.33;;;;;;;23.55;nan;62097.81;5032069;28;20234;-71
2023/08/19 00:22:12;;;;;;;5.68;3.65;;;;;;;23.47;nan;62005.81;5032042;28;20175;-71
2023/08/19 00:24:38;;;;;;;6.22;3.65;;;;;;;23.41;nan;62186.75;5032048;28;20581;-71
2023/08/19 00:27:04;;;;;;;6.93;3.67;;;;;;;23.26;nan;62127.91;5031962;28;20179;-71
2023/08/19 00:29:29;;;;;;;5.25;3.58;;;;;;;23.24;nan;62235.16;5031985;28;20175;-71
2023/08/19 00:31:55;;;;;;;6.20;3.53;;;;;;;23.19;nan;62096.47;5031962;28;20238;-70
2023/08/19 00:34:21;;;;;;;7.72;3.70;;;;;;;23.10;nan;62227.59;5031958;28;20550;-70
2023/08/19 00:36:46;;;;;;;5.50;4.07;;;;;;;23.12;nan;61989.47;5031582;28;20212;-71
2023/08/19 00:39:11;;;;;;;7.43;4.53;;;;;;;23.09;nan;61926.06;5031852;28;20266;-71
2023/08/19 00:41:37;;;;;;;7.32;4.10;;;;;;;22.90;nan;62035.34;5032085;28;20187;-71
2023/08/19 00:44:03;;;;;;;7.18;4.25;;;;;;;22.88;nan;61936.69;5031674;28;20716;-70
2023/08/19 00:46:29;;;;;;;6.90;4.07;;;;;;;22.74;nan;62038.56;5031692;28;20181;-71
2023/08/19 00:48:56;;;;;;;7.72;4.32;;;;;;;22.83;nan;62058.66;5031823;28;20401;-71
2023/08/19 00:51:22;;;;;;;7.22;4.30;;;;;;;22.71;nan;62003.31;5034242;28;20206;-71
2023/08/19 00:53:47;;;;;;;7.85;4.38;;;;;;;22.62;nan;62165.53;5036020;28;20171;-71
2023/08/19 00:56:13;;;;;;;6.47;4.25;;;;;;;22.60;nan;62022.63;5035705;28;20224;-70
2023/08/19 00:58:39;;;;;;;8.65;4.45;;;;;;;22.22;nan;62026.22;5035646;28;20254;-71
2023/08/19 01:01:05;;;;;;;7.15;4.93;;;;;;;22.35;nan;61863.97;5035852;28;20246;-70
2023/08/19 01:03:30;;;;;;;7.20;4.28;;;;;;;22.23;nan;61839.94;5035444;28;20639;-70
2023/08/19 01:06:03;;;;;;;7.18;4.07;;;;;;;22.38;nan;61907.00;5035544;28;20205;-70
2023/08/19 01:08:42;;;;;;;9.52;4.65;;;;;;;22.17;nan;61989.88;5035195;28;20221;-70
2023/08/19 01:11:17;;;;;;;7.80;3.90;;;;;;;22.38;nan;61948.66;5035830;28;20195;-71
2023/08/19 01:14:14;;;;;;;7.00;3.97;;;;;;;22.13;nan;61883.81;5035628;28;20183;-71
2023/08/19 01:16:43;;;;;;;6.88;4.13;;;;;;;22.12;nan;61848.25;5036101;28;20171;-71
2023/08/19 01:19:18;;;;;;;7.80;4.18;;;;;;;22.19;nan;61884.84;5047393;28;20201;-71
2023/08/19 01:21:43;;;;;;;5.15;3.40;;;;;;;21.95;nan;61856.13;5035822;28;20602;-70
2023/08/19 01:24:10;;;;;;;7.07;3.92;;;;;;;22.15;nan;61804.84;5035516;28;20630;-70
2023/08/19 01:26:35;;;;;;;5.72;3.80;;;;;;;22.15;nan;61904.28;5035089;28;20202;-70
2023/08/19 01:29:01;;;;;;;7.00;4.00;;;;;;;22.16;nan;61917.88;5035110;28;20539;-70
2023/08/19 01:31:26;;;;;;;6.95;4.00;;;;;;;22.08;nan;61849.50;5035120;28;20203;-70
2023/08/19 01:33:52;;;;;;;8.27;4.40;;;;;;;21.97;nan;61832.38;5034994;28;20642;-71
2023/08/19 01:36:26;;;;;;;7.15;4.55;;;;;;;21.86;nan;61908.31;5035654;28;20670;-71
2023/08/19 01:38:59;;;;;;;7.38;4.30;;;;;;;21.58;nan;61910.31;5034895;28;20191;-70
2023/08/19 01:41:28;;;;;;;7.15;4.55;;;;;;;21.53;nan;61813.59;5035018;28;20168;-71
2023/08/19 01:43:57;;;;;;;6.82;3.78;;;;;;;21.39;nan;61756.13;5034970;28;20178;-70
2023/08/19 01:46:24;;;;;;;8.10;4.53;;;;;;;21.43;nan;61958.81;5034918;28;20266;-71
2023/08/19 01:48:49;;;;;;;7.20;3.78;;;;;;;21.30;nan;61847.28;5034895;28;20282;-71
2023/08/19 01:51:14;;;;;;;6.78;4.18;;;;;;;21.13;nan;61868.06;5034869;28;20211;-70
2023/08/19 01:53:40;;;;;;;5.97;3.78;;;;;;;21.07;nan;61676.19;5034549;28;20262;-70
2023/08/19 01:56:05;;;;;;;5.15;3.72;;;;;;;21.08;nan;61862.38;5034635;28;20602;-70
2023/08/19 01:58:31;;;;;;;7.75;4.47;;;;;;;21.17;nan;61840.31;5034535;28;20170;-71
2023/08/19 02:00:56;;;;;;;6.28;4.13;;;;;;;20.77;nan;61774.63;5035015;28;20187;-71
2023/08/19 02:03:22;;;;;;;7.88;4.20;;;;;;;20.73;nan;61797.19;5034406;28;20201;-71
2023/08/19 02:05:47;;;;;;;8.70;4.25;;;;;;;20.68;nan;61669.50;5034548;28;20538;-70
2023/08/19 02:08:12;;;;;;;10.60;4.10;;;;;;;20.81;nan;61670.13;5033290;28;20234;-70
2023/08/19 02:10:38;;;;;;;9.13;4.75;;;;;;;20.69;nan;61681.00;5034521;28;20740;-70
2023/08/19 02:13:03;;;;;;;6.63;4.28;;;;;;;20.49;nan;61691.50;5034616;28;20167;-70
2023/08/19 02:15:28;;;;;;;7.70;4.20;;;;;;;20.49;nan;61733.03;5034331;28;20179;-70
2023/08/19 02:17:54;;;;;;;6.22;3.75;;;;;;;20.43;nan;61789.09;5034307;28;20163;-70
2023/08/19 02:20:19;;;;;;;7.22;4.60;;;;;;;20.43;nan;61669.16;5032704;28;20183;-70
2023/08/19 02:22:45;;;;;;;5.88;4.03;;;;;;;20.38;nan;61663.47;5034119;28;20171;-71
2023/08/19 02:25:10;;;;;;;6.90;4.45;;;;;;;20.36;nan;61656.56;5033823;28;20176;-71
2023/08/19 02:27:37;;;;;;;6.00;3.90;;;;;;;20.33;nan;61616.84;5034238;28;20670;-71
2023/08/19 02:30:03;;;;;;;10.85;4.22;;;;;;;20.24;nan;61622.78;5034384;28;20175;-71
2023/08/19 02:32:30;;;;;;;6.97;4.13;;;;;;;20.24;nan;61640.94;5041649;28;20206;-70
2023/08/19 02:34:55;;;;;;;8.05;4.80;;;;;;;20.19;nan;61600.97;5042561;28;20183;-71
2023/08/19 02:37:21;;;;;;;9.88;4.88;;;;;;;20.14;nan;61723.00;5044943;28;20335;-71
2023/08/19 02:39:46;;;;;;;7.82;4.10;;;;;;;20.26;nan;61730.84;5033815;28;20692;-71
2023/08/19 02:42:15;;;;;;;7.38;4.25;;;;;;;19.99;nan;61576.28;5034104;28;20234;-71
2023/08/19 02:44:41;;;;;;;7.82;4.78;;;;;;;20.16;nan;61634.44;5034124;28;20175;-71
2023/08/19 02:47:07;;;;;;;8.85;4.40;;;;;;;19.88;nan;61550.88;5034477;28;20174;-71
2023/08/19 02:49:32;;;;;;;6.45;4.22;;;;;;;20.06;nan;61604.41;5033699;28;20262;-71
2023/08/19 02:51:57;;;;;;;6.85;4.60;;;;;;;19.80;nan;61562.56;5033359;28;20202;-71
2023/08/19 02:54:23;;;;;;;7.75;4.70;;;;;;;19.95;nan;61872.59;5033615;28;20171;-71
2023/08/19 02:56:49;;;;;;;7.45;4.63;;;;;;;19.79;nan;61564.03;5033507;28;20164;-71
2023/08/19 02:59:14;;;;;;;10.73;5.03;;;;;;;19.72;nan;61605.34;5033709;28;20203;-71
2023/08/19 03:01:39;;;;;;;7.60;4.28;;;;;;;20.00;nan;61852.34;5030410;28;20229;-71
2023/08/19 03:04:05;;;;;;;8.05;4.55;;;;;;;19.38;nan;61629.56;5029163;28;20190;-71
2023/08/19 03:06:33;;;;;;;8.50;4.95;;;;;;;20.01;nan;61695.28;5033207;28;20179;-71
2023/08/19 03:08:58;;;;;;;7.63;4.60;;;;;;;19.78;nan;61695.13;5033073;28;20296;-71
2023/08/19 03:11:23;;;;;;;8.45;5.25;;;;;;;19.84;nan;61684.31;5033428;28;20199;-71
2023/08/19 03:13:49;;;;;;;7.28;4.50;;;;;;;19.96;nan;61622.16;5011677;28;20176;-71
2023/08/19 03:16:16;;;;;;;7.80;4.55;;;;;;;19.95;nan;61600.28;5013617;28;20531;-71
2023/08/19 03:18:42;;;;;;;8.70;4.80;;;;;;;19.94;nan;61611.56;5013480;28;20172;-71
2023/08/19 03:21:07;;;;;;;6.55;4.50;;;;;;;19.96;nan;61591.06;5012931;28;20226;-71
2023/08/19 03:23:32;;;;;;;7.32;4.75;;;;;;;20.04;nan;61612.50;5013078;28;20174;-71
2023/08/19 03:25:58;;;;;;;9.48;4.93;;;;;;;20.13;nan;61612.91;5011971;28;20214;-71
2023/08/19 03:28:24;;;;;;;8.18;4.82;;;;;;;20.14;nan;61610.88;5013139;28;20183;-71
2023/08/19 03:30:50;;;;;;;9.30;5.22;;;;;;;20.05;nan;61614.22;5013038;28;20192;-71
2023/08/19 03:33:15;;;;;;;7.15;4.65;;;;;;;19.78;nan;61690.50;5013056;28;20615;-71
2023/08/19 03:35:40;;;;;;;8.07;4.93;;;;;;;19.73;nan;61679.63;5012930;28;20172;-71
2023/08/19 03:38:06;;;;;;;7.88;4.78;;;;;;;19.59;nan;61647.63;5012684;28;20179;-71
2023/08/19 03:40:32;;;;;;;9.23;4.88;;;;;;;19.56;nan;61649.97;5013015;28;20176;-71
2023/08/19 03:42:57;;;;;;;9.68;4.95;;;;;;;19.48;nan;61560.59;5012786;28;20238;-71
2023/08/19 03:45:23;;;;;;;8.27;5.07;;;;;;;19.59;nan;61673.56;5012653;28;20526;-71
2023/08/19 03:47:48;;;;;;;7.38;4.78;;;;;;;19.67;nan;61799.84;5019167;28;20215;-71
2023/08/19 03:50:13;;;;;;;9.15;5.10;;;;;;;19.53;nan;61666.75;5013508;28;20168;-71
2023/08/19 03:52:39;;;;;;;12.50;5.32;;;;;;;19.48;nan;61589.09;5012589;28;20203;-71
2023/08/19 03:55:05;;;;;;;8.23;4.90;;;;;;;19.44;nan;61514.03;5011385;28;20172;-71
2023/08/19 03:57:30;;;;;;;9.15;5.03;;;;;;;19.64;nan;61576.13;5012796;28;20374;-71
2023/08/19 03:59:56;;;;;;;11.35;5.50;;;;;;;19.59;nan;61575.63;5012340;28;20179;-71
2023/08/19 04:02:21;;;;;;;10.80;5.47;;;;;;;19.52;nan;61515.31;5012532;28;20172;-70
2023/08/19 04:05:01;;;;;;;10.73;5.53;;;;;;;20.04;nan;61511.91;5012344;28;20598;-70
2023/08/19 04:07:26;;;;;;;9.02;5.15;;;;;;;20.51;nan;61772.22;5012213;28;20314;-70
2023/08/19 04:09:55;;;;;;;14.50;6.05;;;;;;;20.63;nan;61692.38;5012341;28;20678;-70
2023/08/19 04:12:22;;;;;;;9.68;5.40;;;;;;;20.55;nan;61781.38;5011959;28;20525;-70
2023/08/19 04:14:47;;;;;;;9.60;6.07;;;;;;;20.07;nan;61582.19;5012315;28;20253;-70
2023/08/19 04:17:12;;;;;;;20.67;7.55;;;;;;;19.68;nan;61652.66;5012743;28;20172;-70
2023/08/19 04:19:38;;;;;;;15.05;7.22;;;;;;;19.79;nan;61571.81;5011741;28;20168;-71
2023/08/19 04:22:03;;;;;;;20.70;9.95;;;;;;;19.53;nan;61535.16;5012681;28;20176;-70
2023/08/19 04:24:29;;;;;;;26.98;13.07;;;;;;;19.74;nan;61556.34;5011723;28;20169;-70
2023/08/19 04:26:54;;;;;;;26.77;13.32;;;;;;;19.68;nan;61533.41;5011978;28;20184;-70
2023/08/19 04:29:20;;;;;;;33.83;17.02;;;;;;;19.81;nan;61509.25;5011935;28;20172;-71
2023/08/19 04:31:45;;;;;;;28.50;15.27;;;;;;;20.06;nan;61534.38;5011846;28;20694;-70
2023/08/19 04:34:11;;;;;;;45.58;20.58;;;;;;;20.18;nan;61748.28;5011799;28;20190;-70
2023/08/19 04:36:36;;;;;;;47.58;22.05;;;;;;;20.01;nan;61547.44;5011597;28;20663;-70
2023/08/19 04:39:03;;;;;;;50.72;25.42;;;;;;;20.04;nan;61622.88;5011955;28;20179;-70
2023/08/19 04:41:28;;;;;;;52.50;24.83;;;;;;;20.09;nan;61631.16;5011969;28;20180;-69
2023/08/19 04:43:53;;;;;;;55.92;27.10;;;;;;;20.07;nan;61608.69;5012085;28;20179;-70
2023/08/19 04:46:19;;;;;;;65.28;30.17;;;;;;;19.98;nan;61593.31;5011661;28;20172;-70
2023/08/19 04:48:44;;;;;;;65.15;32.10;;;;;;;20.01;nan;61715.47;5011671;28;20164;-70
2023/08/19 04:51:09;;;;;;;59.40;28.88;;;;;;;20.29;nan;61602.50;5012373;28;20567;-70
2023/08/19 04:53:35;;;;;;;56.17;26.15;;;;;;;20.21;nan;61647.34;5012009;28;20170;-70
2023/08/19 04:56:04;;;;;;;47.47;24.52;;;;;;;20.25;nan;61743.25;5011899;28;20172;-70
2023/08/19 04:58:29;;;;;;;50.40;22.75;;;;;;;20.33;nan;61592.94;5029777;28;20639;-70
2023/08/19 05:00:55;;;;;;;37.15;18.38;;;;;;;20.61;nan;61689.56;5031382;28;20187;-71
2023/08/19 05:03:21;;;;;;;36.38;17.20;;;;;;;20.65;nan;61652.53;5031168;28;20171;-71
2023/08/19 05:05:46;;;;;;;32.28;14.05;;;;;;;20.54;nan;61609.50;5031438;28;20191;-71
2023/08/19 05:08:11;;;;;;;28.27;13.18;;;;;;;21.10;nan;61745.13;5031332;28;20215;-71
2023/08/19 05:10:37;;;;;;;26.27;12.38;;;;;;;21.14;nan;61759.50;5031470;28;20167;-71
2023/08/19 05:13:02;;;;;;;19.75;10.18;;;;;;;21.55;nan;61862.66;5031407;28;20171;-71
2023/08/19 05:15:28;;;;;;;17.38;9.73;;;;;;;21.67;nan;61923.13;5031483;28;20651;-71
2023/08/19 05:17:53;;;;;;;14.38;6.88;;;;;;;21.71;nan;61960.91;5031230;28;20168;-71
2023/08/19 05:20:19;;;;;;;12.35;6.70;;;;;;;21.85;nan;61841.56;5031800;28;20182;-71
2023/08/19 05:22:44;;;;;;;13.35;6.57;;;;;;;22.24;nan;62018.66;5031349;28;20659;-71
2023/08/19 05:25:10;;;;;;;11.32;6.53;;;;;;;22.43;nan;61901.69;5031547;28;20175;-71
2023/08/19 05:27:35;;;;;;;10.57;5.75;;;;;;;22.47;nan;61919.81;5031210;28;20174;-71
2023/08/19 05:30:04;;;;;;;7.75;5.53;;;;;;;22.65;nan;62179.41;5031003;28;20321;-71
2023/08/19 05:32:29;;;;;;;9.70;5.75;;;;;;;22.84;nan;62075.44;5031019;28;20700;-71
2023/08/19 05:34:55;;;;;;;12.05;6.30;;;;;;;23.06;nan;61983.19;5031420;28;20258;-71
2023/08/19 05:37:20;;;;;;;13.15;6.55;;;;;;;23.29;nan;62105.28;5033506;28;20171;-71
2023/08/19 05:39:45;;;;;;;12.43;6.00;;;;;;;23.49;nan;62049.25;5034573;28;20526;-71
2023/08/19 05:42:12;;;;;;;9.32;5.90;;;;;;;23.64;nan;62210.41;5034858;28;20175;-71
2023/08/19 05:44:37;;;;;;;9.23;5.90;;;;;;;23.75;nan;62099.72;5034937;28;20647;-71
2023/08/19 05:47:03;;;;;;;8.93;5.90;;;;;;;23.70;nan;62234.94;5034909;28;20230;-71
2023/08/19 05:49:29;;;;;;;8.60;6.00;;;;;;;23.80;nan;62178.50;5034976;28;20650;-71
2023/08/19 05:51:55;;;;;;;10.20;6.18;;;;;;;23.73;nan;61991.03;5034648;28;20213;-71
2023/08/19 05:54:20;;;;;;;10.57;5.55;;;;;;;24.10;nan;62136.97;5034488;28;20178;-71
2023/08/19 05:56:45;;;;;;;9.75;5.88;;;;;;;24.28;nan;62347.03;5034850;28;20269;-70
2023/08/19 05:59:11;;;;;;;10.02;6.25;;;;;;;24.65;nan;62201.69;5034377;28;20535;-71
2023/08/19 06:01:36;;;;;;;13.68;6.78;;;;;;;24.73;nan;62178.31;5034097;28;20186;-71
2023/08/19 06:04:02;;;;;;;9.18;5.40;;;;;;;24.91;nan;62209.31;5034504;28;20176;-71
2023/08/19 06:06:27;;;;;;;11.68;5.22;;;;;;;24.77;nan;62311.53;5034106;28;20175;-70
2023/08/19 06:08:53;;;;;;;7.30;4.55;;;;;;;25.07;nan;62217.66;5034178;28;20300;-71
2023/08/19 06:11:18;;;;;;;8.05;4.85;;;;;;;25.13;nan;62260.53;5034285;28;20234;-70
2023/08/19 06:13:44;;;;;;;7.90;4.50;;;;;;;25.12;nan;62238.47;5034488;28;20174;-71
2023/08/19 06:16:09;;;;;;;7.70;4.60;;;;;;;24.77;nan;62382.13;5036277;28;20174;-71
2023/08/19 06:18:34;;;;;;;6.82;4.45;;;;;;;25.01;nan;62435.16;5037306;28;20490;-70
2023/08/19 06:21:00;;;;;;;10.38;4.93;;;;;;;25.44;nan;62390.09;5034507;28;20236;-70
2023/08/19 06:23:25;;;;;;;8.02;4.60;;;;;;;25.69;nan;62323.88;5034302;28;20345;-71
2023/08/19 06:25:52;;;;;;;8.27;4.88;;;;;;;25.88;nan;62350.25;5034092;28;20571;-71
2023/08/19 06:28:19;;;;;;;8.50;4.55;;;;;;;25.72;nan;62337.19;5033896;28;20227;-70
2023/08/19 06:30:45;;;;;;;6.85;4.30;;;;;;;25.96;nan;62341.03;5033630;28;20171;-70
2023/08/19 06:33:12;;;;;;;7.10;4.53;;;;;;;26.17;nan;62341.41;5033679;28;20178;-70
2023/08/19 06:35:37;;;;;;;6.00;4.13;;;;;;;26.48;nan;62533.53;5033756;28;20212;-70
2023/08/19 06:38:07;;;;;;;7.07;4.82;;;;;;;26.72;nan;62550.50;5033929;28;20257;-70
2023/08/19 06:40:36;;;;;;;6.20;4.70;;;;;;;26.83;nan;62476.53;5033391;28;20655;-70
2023/08/19 06:43:04;;;;;;;8.05;4.35;;;;;;;26.90;nan;62523.34;5033470;28;20661;-70
2023/08/19 06:45:30;;;;;;;6.72;4.38;;;;;;;26.96;nan;62461.97;5033804;28;20171;-69
2023/08/19 06:47:57;;;;;;;7.90;4.53;;;;;;;27.10;nan;62543.59;5033016;28;20172;-69
2023/08/19 06:50:23;;;;;;;6.78;4.53;;;;;;;26.79;nan;62569.00;5033570;28;20175;-69
2023/08/19 06:52:49;;;;;;;10.27;4.63;;;;;;;27.04;nan;62547.22;5033542;28;20638;-69
2023/08/19 06:55:15;;;;;;;8.68;4.70;;;;;;;27.11;nan;62591.38;5033460;28;20178;-69
2023/08/19 06:57:49;;;;;;;9.05;4.70;;;;;;;27.27;nan;62580.25;5033485;28;20529;-69
2023/08/19 07:00:16;;;;;;;8.45;4.47;;;;;;;27.46;nan;62701.78;5033412;28;20179;-69
2023/08/19 07:02:42;;;;;;;7.60;4.45;;;;;;;27.55;nan;62549.88;5033534;28;20324;-70
2023/08/19 07:05:16;;;;;;;5.53;4.15;;;;;;;27.62;nan;62670.25;5032822;28;20226;-69
2023/08/19 07:07:46;;;;;;;5.97;3.85;;;;;;;27.65;nan;62589.66;5033110;28;20223;-71
2023/08/19 07:10:15;;;;;;;5.63;4.20;;;;;;;27.32;nan;62660.06;5032868;28;20210;-69
2023/08/19 07:12:41;;;;;;;7.03;4.00;;;;;;;27.54;nan;62577.06;5032935;28;20289;-70
2023/08/19 07:15:11;;;;;;;5.82;3.80;;;;;;;27.60;nan;62809.78;5033630;28;20226;-70
2023/08/19 07:17:42;;;;;;;7.65;3.72;;;;;;;27.34;nan;62732.66;5033264;28;20175;-70
2023/08/19 07:20:09;;;;;;;6.50;4.45;;;;;;;27.44;nan;62568.78;5033017;28;20175;-70
2023/08/19 07:22:37;;;;;;;4.93;4.03;;;;;;;27.77;nan;62711.06;5032821;28;20221;-70
2023/08/19 07:25:03;;;;;;;6.00;4.13;;;;;;;28.03;nan;62675.16;5032392;28;20164;-70
2023/08/19 07:27:30;;;;;;;7.28;4.03;;;;;;;28.10;nan;62649.06;5033332;28;20186;-70
2023/08/19 07:29:57;;;;;;;6.25;4.50;;;;;;;26.79;nan;62610.97;5032916;28;20258;-70
2023/08/19 07:32:23;;;;;;;6.72;4.53;;;;;;;28.08;nan;62772.88;5032288;28;20634;-70
2023/08/19 07:34:48;;;;;;;6.28;4.28;;;;;;;28.38;nan;62706.25;5032459;28;20171;-70
2023/08/19 07:37:13;;;;;;;7.70;4.70;;;;;;;28.31;nan;62711.94;5032699;28;20171;-70
2023/08/19 07:39:39;;;;;;;6.60;4.22;;;;;;;28.73;nan;62861.56;5032142;28;20350;-70
2023/08/19 07:42:05;;;;;;;7.22;4.10;;;;;;;28.79;nan;62811.16;5032509;28;20167;-69
2023/08/19 07:44:30;;;;;;;6.72;4.00;;;;;;;29.12;nan;62811.00;5032607;28;20259;-69
2023/08/19 07:46:55;;;;;;;5.68;4.18;;;;;;;29.21;nan;63005.66;5032344;28;20202;-69
2023/08/19 07:49:21;;;;;;;6.95;4.38;;;;;;;29.22;nan;62943.59;5032212;28;20253;-70
2023/08/19 07:51:46;;;;;;;6.45;3.88;;;;;;;29.04;nan;62909.75;5032274;28;20198;-70
2023/08/19 07:54:11;;;;;;;5.22;3.90;;;;;;;28.82;nan;62824.53;5032203;28;20588;-70
2023/08/19 07:56:37;;;;;;;6.50;4.10;;;;;;;28.69;nan;62767.50;5032382;28;20706;-70
2023/08/19 07:59:03;;;;;;;6.10;4.15;;;;;;;28.81;nan;62858.16;5032103;28;20233;-70
2023/08/19 08:01:29;;;;;;;7.32;4.40;;;;;;;28.86;nan;62882.34;5031903;28;20657;-70
2023/08/19 08:03:54;;;;;;;6.88;4.55;;;;;;;28.72;nan;62773.59;5032283;28;20203;-70
2023/08/19 08:06:19;;;;;;;7.53;4.65;;;;;;;28.82;nan;62833.00;5030828;28;20171;-70
2023/08/19 08:08:45;;;;;;;8.35;4.32;;;;;;;28.93;nan;62889.81;5032289;28;20305;-70
2023/08/19 08:11:10;;;;;;;8.43;5.03;;;;;;;29.11;nan;62820.38;5032313;28;20654;-71
2023/08/19 08:13:35;;;;;;;5.95;4.15;;;;;;;28.91;nan;62750.66;5032028;28;20192;-71
2023/08/19 08:16:01;;;;;;;7.20;4.38;;;;;;;29.06;nan;62864.66;5032020;28;20182;-71
2023/08/19 08:18:27;;;;;;;7.15;4.10;;;;;;;29.09;nan;62862.84;5031710;28;20685;-70
2023/08/19 08:20:53;;;;;;;7.18;4.13;;;;;;;28.85;nan;62754.88;5031987;28;20173;-71
2023/08/19 08:23:18;;;;;;;8.13;4.72;;;;;;;29.11;nan;62946.75;5031842;28;20171;-70
2023/08/19 08:25:45;;;;;;;11.48;4.38;;;;;;;29.17;nan;62832.53;5031909;28;20630;-71
2023/08/19 08:28:10;;;;;;;5.82;3.63;;;;;;;29.28;nan;62860.94;5031900;28;20202;-71
2023/08/19 08:30:36;;;;;;;5.95;3.92;;;;;;;29.15;nan;62935.56;5031608;28;20600;-71
2023/08/19 08:33:01;;;;;;;7.00;3.85;;;;;;;29.53;nan;62923.94;5031443;28;20224;-71
2023/08/19 08:35:27;;;;;;;7.00;4.15;;;;;;;29.54;nan;63006.75;5031702;28;20178;-71
2023/08/19 08:37:52;;;;;;;6.85;3.95;;;;;;;29.48;nan;62820.13;5031542;28;20228;-71
2023/08/19 08:40:18;;;;;;;5.32;3.90;;;;;;;29.46;nan;62854.72;5031780;28;20224;-70
2023/08/19 08:42:44;;;;;;;6.50;3.88;;;;;;;29.33;nan;62982.59;5033876;28;20211;-71
2023/08/19 08:45:11;;;;;;;6.88;3.67;;;;;;;29.52;nan;62914.28;5038347;28;20174;-68
2023/08/19 08:47:40;;;;;;;4.50;3.55;;;;;;;29.46;nan;62857.38;5031670;28;20210;-69
2023/08/19 08:50:06;;;;;;;4.65;3.47;;;;;;;29.44;nan;62857.69;5031545;28;20171;-69
2023/08/19 08:52:32;;;;;;;5.30;3.70;;;;;;;29.78;nan;62949.44;5031269;28;20233;-69
2023/08/19 08:54:59;;;;;;;5.75;3.40;;;;;;;29.96;nan;62964.88;5031541;28;20215;-69
2023/08/19 08:57:24;;;;;;;5.53;3.80;;;;;;;30.40;nan;63210.06;5031500;28;20206;-69
2023/08/19 08:59:50;;;;;;;6.13;3.30;;;;;;;30.45;nan;63181.56;5031642;28;20645;-69
2023/08/19 09:02:17;;;;;;;5.78;3.63;;;;;;;30.49;nan;63059.50;5031303;28;20170;-69
2023/08/19 09:04:46;;;;;;;4.10;3.40;;;;;;;30.89;nan;63173.56;5031245;28;20198;-69
2023/08/19 09:07:37;;;;;;;4.70;3.70;;;;;;;30.81;nan;63132.13;5030929;28;20171;-71
2023/08/19 09:10:02;;;;;;;5.75;3.13;;;;;;;31.28;nan;63162.47;5030869;28;20171;-69
2023/08/19 09:12:31;;;;;;;4.32;3.08;;;;;;;31.79;nan;63212.13;5033669;28;20689;-69
2023/08/19 09:15:03;;;;;;;4.88;3.03;;;;;;;32.23;nan;63391.94;5035149;28;20280;-69
2023/08/19 09:17:30;;;;;;;4.20;2.65;;;;;;;32.63;nan;63458.72;5034818;28;20202;-70
2023/08/19 09:19:56;;;;;;;3.88;2.97;;;;;;;32.48;nan;63420.19;5035885;28;20167;-69
2023/08/19 09:22:23;;;;;;;5.30;3.38;;;;;;;32.19;nan;63416.97;5034903;28;20276;-71
2023/08/19 09:24:49;;;;;;;4.18;2.90;;;;;;;32.31;nan;63377.34;5035325;28;20163;-68
2023/08/19 09:27:30;;;;;;;4.57;2.85;;;;;;;31.75;nan;63216.03;5035038;28;20618;-70
2023/08/19 09:29:56;;;;;;;4.35;3.25;;;;;;;31.52;nan;63208.59;5034777;28;20556;-69
2023/08/19 09:32:30;;;;;;;3.97;2.88;;;;;;;31.63;nan;63407.84;5034848;28;20289;-70
2023/08/19 09:35:06;;;;;;;3.58;3.03;;;;;;;31.63;nan;63214.88;5034910;28;20175;-70
2023/08/19 09:37:33;;;;;;;8.07;4.82;;;;;;;31.74;nan;63288.91;5035031;28;20163;-69
2023/08/19 09:39:58;;;;;;;4.53;3.30;;;;;;;32.07;nan;63278.19;5034615;28;20650;-69
2023/08/19 09:42:25;;;;;;;3.45;3.00;;;;;;;32.18;nan;63421.13;5034671;28;20183;-70
2023/08/19 09:44:52;;;;;;;5.20;3.30;;;;;;;31.80;nan;63390.44;5034845;28;20171;-70
2023/08/19 09:47:17;;;;;;;3.85;2.70;;;;;;;31.60;nan;63330.34;5035164;28;20357;-70
2023/08/19 09:49:43;;;;;;;4.63;3.33;;;;;;;31.37;nan;63404.78;5034628;28;20261;-70
2023/08/19 09:52:16;;;;;;;3.03;2.53;;;;;;;31.39;nan;63290.84;5034508;28;20248;-70
2023/08/19 09:54:41;;;;;;;4.35;3.25;;;;;;;31.52;nan;63258.25;5034571;28;20202;-70
2023/08/19 09:57:06;;;;;;;5.07;3.13;;;;;;;31.91;nan;63281.47;5033963;28;20262;-69
2023/08/19 09:59:32;;;;;;;3.88;2.90;;;;;;;31.86;nan;63421.19;5034264;28;20179;-70
2023/08/19 10:01:59;;;;;;;4.25;2.72;;;;;;;31.89;nan;63404.06;5034304;28;20163;-70
2023/08/19 10:04:25;;;;;;;3.63;3.00;;;;;;;32.04;nan;63341.44;5034333;28;20534;-70
2023/08/19 10:06:51;;;;;;;5.35;3.35;;;;;;;31.11;nan;63132.91;5034465;28;20228;-70
2023/08/19 10:09:23;;;;;;;6.38;3.03;;;;;;;31.20;nan;63128.91;5033835;28;20226;-70
2023/08/19 10:11:52;;;;;;;4.13;3.15;;;;;;;31.08;nan;63107.75;5033977;28;20222;-70
2023/08/19 10:14:25;;;;;;;5.68;3.30;;;;;;;31.10;nan;63125.91;5034393;28;20258;-70
2023/08/19 10:16:52;;;;;;;3.78;2.80;;;;;;;31.27;nan;63271.69;5034386;28;20171;-70
2023/08/19 10:19:22;;;;;;;5.13;3.45;;;;;;;31.34;nan;63190.53;5033970;28;20183;-70
2023/08/19 10:21:49;;;;;;;3.70;2.70;;;;;;;31.27;nan;63356.25;5034230;28;20167;-70
2023/08/19 10:24:20;;;;;;;4.90;3.38;;;;;;;31.32;nan;63177.66;5032909;28;20175;-70
2023/08/19 10:26:49;;;;;;;5.28;3.65;;;;;;;31.40;nan;63299.91;5034377;28;20201;-71
2023/08/19 10:29:15;;;;;;;5.10;3.30;;;;;;;31.79;nan;63339.63;5034149;28;20178;-70
2023/08/19 10:31:42;;;;;;;4.97;3.10;;;;;;;31.98;nan;63327.16;5033960;28;20186;-70
2023/08/19 10:34:25;;;;;;;5.03;3.10;;;;;;;32.11;nan;63378.06;5034038;28;20253;-70
2023/08/19 10:37:07;;;;;;;5.35;2.83;;;;;;;32.12;nan;63255.47;5033842;28;20191;-71
2023/08/19 10:39:32;;;;;;;5.55;3.47;;;;;;;32.32;nan;63453.16;5033822;28;20201;-70
2023/08/19 10:41:58;;;;;;;4.28;3.05;;;;;;;32.38;nan;63245.72;5033609;28;20198;-71
2023/08/19 10:44:31;;;;;;;4.15;3.17;;;;;;;32.52;nan;63602.19;5033799;28;20723;-71
2023/08/19 10:47:09;;;;;;;5.25;3.53;;;;;;;32.66;nan;63404.50;5033652;28;20228;-71
2023/08/19 10:49:34;;;;;;;4.72;3.20;;;;;;;32.64;nan;63406.94;5033412;28;20249;-71
2023/08/19 10:54:38;;;;;;;4.07;3.10;;;;;;;32.55;nan;63399.75;5033355;28;20244;-70
2023/08/19 10:57:24;;;;;;;4.95;2.97;;;;;;;32.61;nan;63403.44;5033586;28;20253;-71
2023/08/19 10:59:57;;;;;;;4.55;3.28;;;;;;;31.95;nan;63233.22;5033236;28;20171;-70
2023/08/19 11:02:24;;;;;;;4.57;3.40;;;;;;;31.84;nan;63368.63;5033342;28;20236;-69
2023/08/19 11:04:51;;;;;;;5.10;3.15;;;;;;;31.86;nan;63349.78;5033338;28;20199;-70
2023/08/19 11:07:17;;;;;;;3.63;2.80;;;;;;;31.82;nan;63366.31;5033273;28;20277;-69
2023/08/19 11:09:47;;;;;;;4.60;3.42;;;;;;;32.12;nan;63326.31;5035517;28;20668;-71
2023/08/19 11:12:16;;;;;;;5.65;3.50;;;;;;;31.90;nan;63249.19;5036757;28;20590;-70
2023/08/19 11:14:48;;;;;;;4.90;3.28;;;;;;;31.81;nan;63280.56;5033325;28;20645;-70
2023/08/19 11:17:13;;;;;;;4.97;3.58;;;;;;;31.73;nan;63298.34;5033216;28;20225;-71
2023/08/19 11:19:39;;;;;;;3.95;3.25;;;;;;;31.77;nan;63313.53;5033055;28;20166;-71
2023/08/19 11:22:05;;;;;;;3.90;3.08;;;;;;;31.81;nan;63339.31;5032593;28;20646;-71
2023/08/19 11:24:32;;;;;;;4.95;3.28;;;;;;;32.21;nan;63289.63;5032370;28;20642;-71
2023/08/19 11:26:57;;;;;;;5.13;3.55;;;;;;;32.45;nan;63586.75;5032995;28;20173;-70
2023/08/19 11:29:23;;;;;;;4.22;3.13;;;;;;;32.01;nan;63433.22;5031033;28;20179;-70
2023/08/19 11:31:48;;;;;;;3.92;3.30;;;;;;;32.54;nan;63475.38;5032674;28;20701;-70
2023/08/19 11:34:14;;;;;;;3.85;3.10;;;;;;;32.68;nan;63393.00;5031468;28;20190;-70
2023/08/19 11:36:42;;;;;;;5.47;3.10;;;;;;;32.80;nan;63475.72;5032750;28;20204;-70
2023/08/19 11:39:08;;;;;;;4.18;3.00;;;;;;;32.63;nan;63604.94;5032113;28;20175;-70
2023/08/19 11:41:34;;;;;;;5.60;3.25;;;;;;;32.74;nan;63477.28;5032474;28;20669;-70
2023/08/19 11:44:02;;;;;;;4.95;3.47;;;;;;;32.97;nan;63508.59;5032193;28;20171;-71
2023/08/19 11:46:29;;;;;;;3.83;3.03;;;;;;;32.41;nan;63320.06;5032511;28;20171;-71
2023/08/19 11:48:55;;;;;;;4.25;3.15;;;;;;;32.43;nan;63344.09;5032561;28;20266;-71